sensor_id;sensor_type;location;lat;lon;timestamp;temperature;humidity
34766;DHT22;20984;43.508;1.504;2023-05-07T00:01:56;15.60;99.90
34766;DHT22;20984;43.508;1.504;2023-05-07T00:04:22;15.60;99.90
34766;DHT22;20984;43.508;1.504;2023-05-07T00:06:47;15.50;99.90
34766;DHT22;20984;43.508;1.504;2023-05-07T00:09:13;15.50;99.90
34766;DHT22;20984;43.508;1.504;2023-05-07T00:11:39;15.50;99.90
34766;DHT22;20984;43.508;1.504;2023-05-07T00:14:05;15.50;99.90
34766;DHT22;20984;43.508;1.504;2023-05-07T00:16:31;15.50;99.90
34766;DHT22;20984;43.508;1.504;2023-05-07T00:18:57;15.50;99.90
34766;DHT22;20984;43.508;1.504;2023-05-07T00:21:22;15.50;99.90
34766;DHT22;20984;43.508;1.504;2023-05-07T00:23:52;15.50;99.90
34766;DHT22;20984;43.508;1.504;2023-05-07T00:26:18;15.50;99.90
34766;DHT22;20984;43.508;1.504;2023-05-07T00:28:43;15.50;99.90
34766;DHT22;20984;43.508;1.504;2023-05-07T00:31:09;15.50;99.90
34766;DHT22;20984;43.508;1.504;2023-05-07T00:33:35;15.50;99.90
34766;DHT22;20984;43.508;1.504;2023-05-07T00:36:01;15.50;99.90
34766;DHT22;20984;43.508;1.504;2023-05-07T00:38:27;15.50;99.90
34766;DHT22;20984;43.508;1.504;2023-05-07T00:40:52;15.50;99.90
34766;DHT22;20984;43.508;1.504;2023-05-07T00:43:18;15.50;99.90
34766;DHT22;20984;43.508;1.504;2023-05-07T00:45:44;15.50;99.90
34766;DHT22;20984;43.508;1.504;2023-05-07T00:48:10;15.50;99.90
34766;DHT22;20984;43.508;1.504;2023-05-07T00:50:35;15.50;99.90
34766;DHT22;20984;43.508;1.504;2023-05-07T00:53:01;15.50;99.90
34766;DHT22;20984;43.508;1.504;2023-05-07T00:55:28;15.50;99.90
34766;DHT22;20984;43.508;1.504;2023-05-07T00:57:54;15.50;99.90
34766;DHT22;20984;43.508;1.504;2023-05-07T01:00:19;15.50;99.90
34766;DHT22;20984;43.508;1.504;2023-05-07T01:02:45;15.50;99.90
34766;DHT22;20984;43.508;1.504;2023-05-07T01:05:14;15.50;99.90
34766;DHT22;20984;43.508;1.504;2023-05-07T01:07:40;15.50;99.90
34766;DHT22;20984;43.508;1.504;2023-05-07T01:10:08;15.50;99.90
34766;DHT22;20984;43.508;1.504;2023-05-07T01:12:38;15.50;99.90
34766;DHT22;20984;43.508;1.504;2023-05-07T01:15:05;15.50;99.90
34766;DHT22;20984;43.508;1.504;2023-05-07T01:17:40;15.50;99.90
34766;DHT22;20984;43.508;1.504;2023-05-07T01:20:06;15.50;99.90
34766;DHT22;20984;43.508;1.504;2023-05-07T01:22:34;15.50;99.90
34766;DHT22;20984;43.508;1.504;2023-05-07T01:25:00;15.50;99.90
34766;DHT22;20984;43.508;1.504;2023-05-07T01:27:27;15.50;99.90
34766;DHT22;20984;43.508;1.504;2023-05-07T01:29:53;15.50;99.90
34766;DHT22;20984;43.508;1.504;2023-05-07T01:32:29;15.50;99.90
34766;DHT22;20984;43.508;1.504;2023-05-07T01:34:57;15.50;99.90
34766;DHT22;20984;43.508;1.504;2023-05-07T01:37:25;15.50;99.90
34766;DHT22;20984;43.508;1.504;2023-05-07T01:39:52;15.60;99.90
34766;DHT22;20984;43.508;1.504;2023-05-07T01:42:18;15.50;99.90
34766;DHT22;20984;43.508;1.504;2023-05-07T01:44:44;15.50;99.90
34766;DHT22;20984;43.508;1.504;2023-05-07T01:47:10;15.50;99.90
34766;DHT22;20984;43.508;1.504;2023-05-07T01:49:35;15.50;99.90
34766;DHT22;20984;43.508;1.504;2023-05-07T01:52:02;15.50;99.90
34766;DHT22;20984;43.508;1.504;2023-05-07T01:54:28;15.40;99.90
34766;DHT22;20984;43.508;1.504;2023-05-07T01:56:55;15.40;99.90
34766;DHT22;20984;43.508;1.504;2023-05-07T01:59:21;15.40;99.90
34766;DHT22;20984;43.508;1.504;2023-05-07T02:01:47;15.40;99.90
34766;DHT22;20984;43.508;1.504;2023-05-07T02:04:13;15.30;99.90
34766;DHT22;20984;43.508;1.504;2023-05-07T02:06:38;15.40;99.90
34766;DHT22;20984;43.508;1.504;2023-05-07T02:09:04;15.40;99.90
34766;DHT22;20984;43.508;1.504;2023-05-07T02:11:30;15.40;99.90
34766;DHT22;20984;43.508;1.504;2023-05-07T02:13:55;15.30;99.90
34766;DHT22;20984;43.508;1.504;2023-05-07T02:16:21;15.30;99.90
34766;DHT22;20984;43.508;1.504;2023-05-07T02:18:48;15.30;99.90
34766;DHT22;20984;43.508;1.504;2023-05-07T02:21:14;15.30;99.90
34766;DHT22;20984;43.508;1.504;2023-05-07T02:23:39;15.30;99.90
34766;DHT22;20984;43.508;1.504;2023-05-07T02:26:05;15.20;99.90
34766;DHT22;20984;43.508;1.504;2023-05-07T02:28:31;15.20;99.90
34766;DHT22;20984;43.508;1.504;2023-05-07T02:30:56;15.20;99.90
34766;DHT22;20984;43.508;1.504;2023-05-07T02:33:24;15.20;99.90
34766;DHT22;20984;43.508;1.504;2023-05-07T02:35:50;15.20;99.90
34766;DHT22;20984;43.508;1.504;2023-05-07T02:38:17;15.10;99.90
34766;DHT22;20984;43.508;1.504;2023-05-07T02:40:43;15.10;99.90
34766;DHT22;20984;43.508;1.504;2023-05-07T02:43:09;15.10;99.90
34766;DHT22;20984;43.508;1.504;2023-05-07T02:45:34;15.10;99.90
34766;DHT22;20984;43.508;1.504;2023-05-07T02:48:01;15.10;99.90
34766;DHT22;20984;43.508;1.504;2023-05-07T02:50:27;15.10;99.90
34766;DHT22;20984;43.508;1.504;2023-05-07T02:52:53;15.00;99.90
34766;DHT22;20984;43.508;1.504;2023-05-07T02:55:18;15.00;99.90
34766;DHT22;20984;43.508;1.504;2023-05-07T02:57:44;15.00;99.90
34766;DHT22;20984;43.508;1.504;2023-05-07T03:00:14;15.00;99.90
34766;DHT22;20984;43.508;1.504;2023-05-07T03:02:40;14.90;99.90
34766;DHT22;20984;43.508;1.504;2023-05-07T03:05:06;14.90;99.90
34766;DHT22;20984;43.508;1.504;2023-05-07T03:07:32;14.90;99.90
34766;DHT22;20984;43.508;1.504;2023-05-07T03:09:57;14.90;99.90
34766;DHT22;20984;43.508;1.504;2023-05-07T03:12:23;14.90;99.90
34766;DHT22;20984;43.508;1.504;2023-05-07T03:14:49;14.90;99.90
34766;DHT22;20984;43.508;1.504;2023-05-07T03:17:15;14.90;99.90
34766;DHT22;20984;43.508;1.504;2023-05-07T03:19:41;14.90;99.90
34766;DHT22;20984;43.508;1.504;2023-05-07T03:22:07;14.90;99.90
34766;DHT22;20984;43.508;1.504;2023-05-07T03:24:32;14.80;99.90
34766;DHT22;20984;43.508;1.504;2023-05-07T03:26:58;14.90;99.90
34766;DHT22;20984;43.508;1.504;2023-05-07T03:29:24;14.80;99.90
34766;DHT22;20984;43.508;1.504;2023-05-07T03:31:50;14.90;99.90
34766;DHT22;20984;43.508;1.504;2023-05-07T03:34:15;14.90;99.90
34766;DHT22;20984;43.508;1.504;2023-05-07T03:36:42;14.90;99.90
34766;DHT22;20984;43.508;1.504;2023-05-07T03:39:08;14.90;99.90
34766;DHT22;20984;43.508;1.504;2023-05-07T03:41:33;14.90;99.90
34766;DHT22;20984;43.508;1.504;2023-05-07T03:43:59;15.00;99.90
34766;DHT22;20984;43.508;1.504;2023-05-07T03:46:25;15.00;99.90
34766;DHT22;20984;43.508;1.504;2023-05-07T03:48:51;14.90;99.90
34766;DHT22;20984;43.508;1.504;2023-05-07T03:51:17;15.00;99.90
34766;DHT22;20984;43.508;1.504;2023-05-07T03:53:43;15.00;99.90
34766;DHT22;20984;43.508;1.504;2023-05-07T03:56:09;15.00;99.90
34766;DHT22;20984;43.508;1.504;2023-05-07T03:58:34;14.90;99.90
34766;DHT22;20984;43.508;1.504;2023-05-07T04:01:00;14.90;99.90
34766;DHT22;20984;43.508;1.504;2023-05-07T04:03:26;15.00;99.90
34766;DHT22;20984;43.508;1.504;2023-05-07T04:05:52;15.00;99.90
34766;DHT22;20984;43.508;1.504;2023-05-07T04:08:17;15.00;99.90
34766;DHT22;20984;43.508;1.504;2023-05-07T04:10:43;14.90;99.90
34766;DHT22;20984;43.508;1.504;2023-05-07T04:13:08;14.90;99.90
34766;DHT22;20984;43.508;1.504;2023-05-07T04:15:35;14.90;99.90
34766;DHT22;20984;43.508;1.504;2023-05-07T04:18:01;14.90;99.90
34766;DHT22;20984;43.508;1.504;2023-05-07T04:20:27;14.90;99.90
34766;DHT22;20984;43.508;1.504;2023-05-07T04:22:52;14.90;99.90
34766;DHT22;20984;43.508;1.504;2023-05-07T04:25:18;14.90;99.90
34766;DHT22;20984;43.508;1.504;2023-05-07T04:27:44;14.90;99.90
34766;DHT22;20984;43.508;1.504;2023-05-07T04:30:10;14.90;99.90
34766;DHT22;20984;43.508;1.504;2023-05-07T04:32:36;14.90;99.90
34766;DHT22;20984;43.508;1.504;2023-05-07T04:35:03;14.90;99.90
34766;DHT22;20984;43.508;1.504;2023-05-07T04:37:28;14.90;99.90
34766;DHT22;20984;43.508;1.504;2023-05-07T04:39:54;14.90;99.90
34766;DHT22;20984;43.508;1.504;2023-05-07T04:42:20;14.90;99.90
34766;DHT22;20984;43.508;1.504;2023-05-07T04:44:45;14.90;99.90
34766;DHT22;20984;43.508;1.504;2023-05-07T04:47:12;14.90;99.90
34766;DHT22;20984;43.508;1.504;2023-05-07T04:49:40;14.90;99.90
34766;DHT22;20984;43.508;1.504;2023-05-07T04:52:06;14.90;99.90
34766;DHT22;20984;43.508;1.504;2023-05-07T04:54:32;14.90;99.90
34766;DHT22;20984;43.508;1.504;2023-05-07T04:56:57;15.00;99.90
34766;DHT22;20984;43.508;1.504;2023-05-07T04:59:23;15.00;99.90
34766;DHT22;20984;43.508;1.504;2023-05-07T05:01:49;14.90;99.90
34766;DHT22;20984;43.508;1.504;2023-05-07T05:04:14;15.00;99.90
34766;DHT22;20984;43.508;1.504;2023-05-07T05:06:40;15.00;99.90
34766;DHT22;20984;43.508;1.504;2023-05-07T05:09:06;15.00;99.90
34766;DHT22;20984;43.508;1.504;2023-05-07T05:11:32;15.00;99.90
34766;DHT22;20984;43.508;1.504;2023-05-07T05:13:59;15.00;99.90
34766;DHT22;20984;43.508;1.504;2023-05-07T05:16:25;15.00;99.90
34766;DHT22;20984;43.508;1.504;2023-05-07T05:18:50;15.00;99.90
34766;DHT22;20984;43.508;1.504;2023-05-07T05:21:17;15.00;99.90
34766;DHT22;20984;43.508;1.504;2023-05-07T05:23:43;15.00;99.90
34766;DHT22;20984;43.508;1.504;2023-05-07T05:26:09;15.00;99.90
34766;DHT22;20984;43.508;1.504;2023-05-07T05:28:34;14.90;99.90
34766;DHT22;20984;43.508;1.504;2023-05-07T05:31:00;15.00;99.90
34766;DHT22;20984;43.508;1.504;2023-05-07T05:33:25;15.00;99.90
34766;DHT22;20984;43.508;1.504;2023-05-07T05:35:51;14.90;99.90
34766;DHT22;20984;43.508;1.504;2023-05-07T05:38:17;14.90;99.90
34766;DHT22;20984;43.508;1.504;2023-05-07T05:40:42;14.90;99.90
34766;DHT22;20984;43.508;1.504;2023-05-07T05:43:08;15.00;99.90
34766;DHT22;20984;43.508;1.504;2023-05-07T05:45:34;14.90;99.90
34766;DHT22;20984;43.508;1.504;2023-05-07T05:48:00;14.90;99.90
34766;DHT22;20984;43.508;1.504;2023-05-07T05:50:26;14.90;99.90
34766;DHT22;20984;43.508;1.504;2023-05-07T05:52:51;15.00;99.90
34766;DHT22;20984;43.508;1.504;2023-05-07T05:55:17;15.00;99.90
34766;DHT22;20984;43.508;1.504;2023-05-07T05:57:42;15.00;99.90
34766;DHT22;20984;43.508;1.504;2023-05-07T06:00:09;15.00;99.90
34766;DHT22;20984;43.508;1.504;2023-05-07T06:02:35;15.10;99.90
34766;DHT22;20984;43.508;1.504;2023-05-07T06:05:00;15.20;99.90
34766;DHT22;20984;43.508;1.504;2023-05-07T06:07:26;15.20;99.90
34766;DHT22;20984;43.508;1.504;2023-05-07T06:09:51;15.20;99.90
34766;DHT22;20984;43.508;1.504;2023-05-07T06:12:17;15.30;99.90
34766;DHT22;20984;43.508;1.504;2023-05-07T06:14:43;15.30;99.90
34766;DHT22;20984;43.508;1.504;2023-05-07T06:17:09;15.30;99.90
34766;DHT22;20984;43.508;1.504;2023-05-07T06:19:35;15.30;99.90
34766;DHT22;20984;43.508;1.504;2023-05-07T06:22:01;15.30;99.90
34766;DHT22;20984;43.508;1.504;2023-05-07T06:24:27;15.30;99.90
34766;DHT22;20984;43.508;1.504;2023-05-07T06:26:53;15.30;99.90
34766;DHT22;20984;43.508;1.504;2023-05-07T06:29:18;15.20;99.90
34766;DHT22;20984;43.508;1.504;2023-05-07T06:31:44;15.30;99.90
34766;DHT22;20984;43.508;1.504;2023-05-07T06:34:10;15.30;99.90
34766;DHT22;20984;43.508;1.504;2023-05-07T06:36:39;15.30;99.90
34766;DHT22;20984;43.508;1.504;2023-05-07T06:39:05;15.30;99.90
34766;DHT22;20984;43.508;1.504;2023-05-07T06:41:31;15.40;99.90
34766;DHT22;20984;43.508;1.504;2023-05-07T06:43:57;15.30;99.90
34766;DHT22;20984;43.508;1.504;2023-05-07T06:46:22;15.30;99.90
34766;DHT22;20984;43.508;1.504;2023-05-07T06:48:48;15.30;99.90
34766;DHT22;20984;43.508;1.504;2023-05-07T06:51:14;15.30;99.90
34766;DHT22;20984;43.508;1.504;2023-05-07T06:53:39;15.30;99.90
34766;DHT22;20984;43.508;1.504;2023-05-07T06:56:05;15.30;99.90
34766;DHT22;20984;43.508;1.504;2023-05-07T06:58:31;15.30;99.90
34766;DHT22;20984;43.508;1.504;2023-05-07T07:00:57;15.30;99.90
34766;DHT22;20984;43.508;1.504;2023-05-07T07:03:23;15.30;99.90
34766;DHT22;20984;43.508;1.504;2023-05-07T07:05:52;15.40;99.90
34766;DHT22;20984;43.508;1.504;2023-05-07T07:08:18;15.50;99.90
34766;DHT22;20984;43.508;1.504;2023-05-07T07:10:44;15.60;99.90
34766;DHT22;20984;43.508;1.504;2023-05-07T07:13:09;15.60;99.90
34766;DHT22;20984;43.508;1.504;2023-05-07T07:15:35;15.70;99.90
34766;DHT22;20984;43.508;1.504;2023-05-07T07:18:01;15.80;99.90
34766;DHT22;20984;43.508;1.504;2023-05-07T07:20:26;15.90;99.90
34766;DHT22;20984;43.508;1.504;2023-05-07T07:22:52;15.90;99.90
34766;DHT22;20984;43.508;1.504;2023-05-07T07:25:18;16.00;99.90
34766;DHT22;20984;43.508;1.504;2023-05-07T07:27:43;16.00;99.90
34766;DHT22;20984;43.508;1.504;2023-05-07T07:30:09;15.90;99.90
34766;DHT22;20984;43.508;1.504;2023-05-07T07:32:35;15.90;99.90
34766;DHT22;20984;43.508;1.504;2023-05-07T07:35:01;15.80;99.90
34766;DHT22;20984;43.508;1.504;2023-05-07T07:37:27;15.80;99.90
34766;DHT22;20984;43.508;1.504;2023-05-07T07:39:52;15.90;99.90
34766;DHT22;20984;43.508;1.504;2023-05-07T07:42:18;16.00;99.90
34766;DHT22;20984;43.508;1.504;2023-05-07T07:44:44;16.00;99.90
34766;DHT22;20984;43.508;1.504;2023-05-07T07:47:09;16.00;99.90
34766;DHT22;20984;43.508;1.504;2023-05-07T07:49:35;15.90;99.90
34766;DHT22;20984;43.508;1.504;2023-05-07T07:52:01;15.90;99.90
34766;DHT22;20984;43.508;1.504;2023-05-07T07:54:27;16.00;99.90
34766;DHT22;20984;43.508;1.504;2023-05-07T07:56:52;16.00;99.90
34766;DHT22;20984;43.508;1.504;2023-05-07T07:59:18;16.00;99.90
34766;DHT22;20984;43.508;1.504;2023-05-07T08:01:44;16.10;99.90
34766;DHT22;20984;43.508;1.504;2023-05-07T08:04:10;16.10;99.90
34766;DHT22;20984;43.508;1.504;2023-05-07T08:06:36;16.20;99.90
34766;DHT22;20984;43.508;1.504;2023-05-07T08:09:02;16.30;99.90
34766;DHT22;20984;43.508;1.504;2023-05-07T08:11:28;16.30;99.90
34766;DHT22;20984;43.508;1.504;2023-05-07T08:13:54;16.40;99.90
34766;DHT22;20984;43.508;1.504;2023-05-07T08:16:20;16.40;99.90
34766;DHT22;20984;43.508;1.504;2023-05-07T08:18:46;16.40;99.90
34766;DHT22;20984;43.508;1.504;2023-05-07T08:21:12;16.30;99.90
34766;DHT22;20984;43.508;1.504;2023-05-07T08:23:37;16.40;99.90
34766;DHT22;20984;43.508;1.504;2023-05-07T08:26:03;16.40;99.90
34766;DHT22;20984;43.508;1.504;2023-05-07T08:28:29;16.40;99.90
34766;DHT22;20984;43.508;1.504;2023-05-07T08:30:55;16.30;99.90
34766;DHT22;20984;43.508;1.504;2023-05-07T08:33:22;16.30;99.90
34766;DHT22;20984;43.508;1.504;2023-05-07T08:35:47;16.30;99.90
34766;DHT22;20984;43.508;1.504;2023-05-07T08:38:13;16.30;99.90
34766;DHT22;20984;43.508;1.504;2023-05-07T08:40:39;16.20;99.90
34766;DHT22;20984;43.508;1.504;2023-05-07T08:43:06;16.20;99.90
34766;DHT22;20984;43.508;1.504;2023-05-07T08:45:33;16.20;99.90
34766;DHT22;20984;43.508;1.504;2023-05-07T08:48:02;16.10;99.90
34766;DHT22;20984;43.508;1.504;2023-05-07T08:50:29;16.20;99.90
34766;DHT22;20984;43.508;1.504;2023-05-07T08:52:55;16.20;99.90
34766;DHT22;20984;43.508;1.504;2023-05-07T08:55:23;16.30;99.90
34766;DHT22;20984;43.508;1.504;2023-05-07T08:57:49;16.40;99.90
34766;DHT22;20984;43.508;1.504;2023-05-07T09:00:15;16.50;99.90
34766;DHT22;20984;43.508;1.504;2023-05-07T09:02:41;16.60;99.90
34766;DHT22;20984;43.508;1.504;2023-05-07T09:05:07;16.80;99.90
34766;DHT22;20984;43.508;1.504;2023-05-07T09:07:34;17.00;99.90
34766;DHT22;20984;43.508;1.504;2023-05-07T09:10:04;17.00;99.90
34766;DHT22;20984;43.508;1.504;2023-05-07T09:12:30;17.10;99.90
34766;DHT22;20984;43.508;1.504;2023-05-07T09:14:56;17.00;99.90
34766;DHT22;20984;43.508;1.504;2023-05-07T09:17:22;17.00;99.90
34766;DHT22;20984;43.508;1.504;2023-05-07T09:19:47;17.00;99.90
34766;DHT22;20984;43.508;1.504;2023-05-07T09:22:13;17.00;99.90
34766;DHT22;20984;43.508;1.504;2023-05-07T09:24:39;17.00;99.90
34766;DHT22;20984;43.508;1.504;2023-05-07T09:27:06;17.00;99.90
34766;DHT22;20984;43.508;1.504;2023-05-07T09:29:32;17.20;99.90
34766;DHT22;20984;43.508;1.504;2023-05-07T09:32:06;17.30;99.90
34766;DHT22;20984;43.508;1.504;2023-05-07T09:34:33;17.30;99.90
34766;DHT22;20984;43.508;1.504;2023-05-07T09:37:02;17.40;99.90
34766;DHT22;20984;43.508;1.504;2023-05-07T09:39:48;17.40;99.90
34766;DHT22;20984;43.508;1.504;2023-05-07T09:42:14;17.30;99.90
34766;DHT22;20984;43.508;1.504;2023-05-07T09:44:40;17.20;99.90
34766;DHT22;20984;43.508;1.504;2023-05-07T09:47:06;17.20;99.90
34766;DHT22;20984;43.508;1.504;2023-05-07T09:49:37;17.30;99.90
34766;DHT22;20984;43.508;1.504;2023-05-07T09:52:05;17.20;99.90
34766;DHT22;20984;43.508;1.504;2023-05-07T09:54:32;17.30;99.90
34766;DHT22;20984;43.508;1.504;2023-05-07T09:56:59;17.40;99.90
34766;DHT22;20984;43.508;1.504;2023-05-07T09:59:27;17.60;99.90
34766;DHT22;20984;43.508;1.504;2023-05-07T10:01:57;17.70;99.90
34766;DHT22;20984;43.508;1.504;2023-05-07T10:04:27;17.90;99.90
34766;DHT22;20984;43.508;1.504;2023-05-07T10:06:54;18.10;99.90
34766;DHT22;20984;43.508;1.504;2023-05-07T10:09:21;18.20;99.90
34766;DHT22;20984;43.508;1.504;2023-05-07T10:11:49;18.50;99.90
34766;DHT22;20984;43.508;1.504;2023-05-07T10:14:14;18.60;99.90
34766;DHT22;20984;43.508;1.504;2023-05-07T10:16:41;18.90;99.90
34766;DHT22;20984;43.508;1.504;2023-05-07T10:19:09;19.10;99.90
34766;DHT22;20984;43.508;1.504;2023-05-07T10:21:39;19.20;99.90
34766;DHT22;20984;43.508;1.504;2023-05-07T10:24:19;19.40;99.90
34766;DHT22;20984;43.508;1.504;2023-05-07T10:26:47;19.40;99.90
34766;DHT22;20984;43.508;1.504;2023-05-07T10:34:46;19.20;99.90
34766;DHT22;20984;43.508;1.504;2023-05-07T10:37:13;19.10;99.90
34766;DHT22;20984;43.508;1.504;2023-05-07T10:39:39;18.90;99.90
34766;DHT22;20984;43.508;1.504;2023-05-07T10:42:13;18.70;99.90
34766;DHT22;20984;43.508;1.504;2023-05-07T10:44:39;18.40;99.90
34766;DHT22;20984;43.508;1.504;2023-05-07T10:47:09;18.20;99.90
34766;DHT22;20984;43.508;1.504;2023-05-07T10:49:36;18.00;99.90
34766;DHT22;20984;43.508;1.504;2023-05-07T10:52:22;17.90;99.90
34766;DHT22;20984;43.508;1.504;2023-05-07T10:57:42;17.60;99.90
34766;DHT22;20984;43.508;1.504;2023-05-07T11:03:04;17.40;99.90
34766;DHT22;20984;43.508;1.504;2023-05-07T11:05:32;17.30;99.90
34766;DHT22;20984;43.508;1.504;2023-05-07T11:08:00;17.30;99.90
34766;DHT22;20984;43.508;1.504;2023-05-07T11:13:17;17.40;99.90
34766;DHT22;20984;43.508;1.504;2023-05-07T11:15:46;17.50;99.90
34766;DHT22;20984;43.508;1.504;2023-05-07T11:18:16;17.80;99.90
34766;DHT22;20984;43.508;1.504;2023-05-07T11:20:52;18.00;99.90
34766;DHT22;20984;43.508;1.504;2023-05-07T11:26:08;18.40;99.90
34766;DHT22;20984;43.508;1.504;2023-05-07T11:28:40;18.70;99.90
34766;DHT22;20984;43.508;1.504;2023-05-07T11:31:06;19.10;99.90
34766;DHT22;20984;43.508;1.504;2023-05-07T11:33:32;19.30;99.90
34766;DHT22;20984;43.508;1.504;2023-05-07T11:35:59;19.60;99.90
34766;DHT22;20984;43.508;1.504;2023-05-07T11:38:25;19.90;99.90
34766;DHT22;20984;43.508;1.504;2023-05-07T11:40:58;20.10;99.90
34766;DHT22;20984;43.508;1.504;2023-05-07T11:43:26;20.00;99.90
34766;DHT22;20984;43.508;1.504;2023-05-07T11:45:52;19.80;99.90
34766;DHT22;20984;43.508;1.504;2023-05-07T11:48:18;19.70;99.90
34766;DHT22;20984;43.508;1.504;2023-05-07T11:51:02;19.50;99.90
34766;DHT22;20984;43.508;1.504;2023-05-07T11:53:35;19.30;99.90
34766;DHT22;20984;43.508;1.504;2023-05-07T11:56:10;19.40;99.90
34766;DHT22;20984;43.508;1.504;2023-05-07T11:58:36;19.50;99.90
34766;DHT22;20984;43.508;1.504;2023-05-07T12:01:02;19.80;99.90
34766;DHT22;20984;43.508;1.504;2023-05-07T12:03:27;19.90;99.90
34766;DHT22;20984;43.508;1.504;2023-05-07T12:05:53;19.90;99.90
34766;DHT22;20984;43.508;1.504;2023-05-07T12:08:21;19.80;99.90
34766;DHT22;20984;43.508;1.504;2023-05-07T12:10:49;19.90;99.90
34766;DHT22;20984;43.508;1.504;2023-05-07T12:13:23;20.10;99.90
34766;DHT22;20984;43.508;1.504;2023-05-07T12:15:53;20.40;99.90
34766;DHT22;20984;43.508;1.504;2023-05-07T12:18:20;20.50;99.90
34766;DHT22;20984;43.508;1.504;2023-05-07T12:20:46;20.20;99.90
34766;DHT22;20984;43.508;1.504;2023-05-07T12:23:13;20.30;99.90
34766;DHT22;20984;43.508;1.504;2023-05-07T12:25:40;20.50;99.90
34766;DHT22;20984;43.508;1.504;2023-05-07T12:28:16;21.00;99.90
34766;DHT22;20984;43.508;1.504;2023-05-07T12:30:43;21.20;99.90
34766;DHT22;20984;43.508;1.504;2023-05-07T12:33:10;21.00;99.90
34766;DHT22;20984;43.508;1.504;2023-05-07T12:35:40;20.70;99.90
34766;DHT22;20984;43.508;1.504;2023-05-07T12:38:08;20.60;99.90
34766;DHT22;20984;43.508;1.504;2023-05-07T12:40:38;20.80;99.90
34766;DHT22;20984;43.508;1.504;2023-05-07T12:43:04;20.80;99.90
34766;DHT22;20984;43.508;1.504;2023-05-07T12:45:30;20.80;99.90
34766;DHT22;20984;43.508;1.504;2023-05-07T12:47:56;20.70;99.90
34766;DHT22;20984;43.508;1.504;2023-05-07T12:50:23;20.80;99.90
34766;DHT22;20984;43.508;1.504;2023-05-07T12:52:48;20.70;99.90
34766;DHT22;20984;43.508;1.504;2023-05-07T12:55:15;20.60;99.90
34766;DHT22;20984;43.508;1.504;2023-05-07T12:57:48;20.60;99.90
34766;DHT22;20984;43.508;1.504;2023-05-07T13:00:14;20.50;99.90
34766;DHT22;20984;43.508;1.504;2023-05-07T13:02:42;20.50;99.90
34766;DHT22;20984;43.508;1.504;2023-05-07T13:05:09;20.60;99.90
34766;DHT22;20984;43.508;1.504;2023-05-07T13:07:35;20.80;99.90
34766;DHT22;20984;43.508;1.504;2023-05-07T13:10:03;21.10;99.90
34766;DHT22;20984;43.508;1.504;2023-05-07T13:12:28;21.20;99.90
34766;DHT22;20984;43.508;1.504;2023-05-07T13:14:54;21.30;99.90
34766;DHT22;20984;43.508;1.504;2023-05-07T13:17:19;21.50;99.90
34766;DHT22;20984;43.508;1.504;2023-05-07T13:19:45;21.50;99.90
34766;DHT22;20984;43.508;1.504;2023-05-07T13:22:11;21.50;99.90
34766;DHT22;20984;43.508;1.504;2023-05-07T13:24:36;21.40;99.90
34766;DHT22;20984;43.508;1.504;2023-05-07T13:27:02;21.70;99.90
34766;DHT22;20984;43.508;1.504;2023-05-07T13:29:28;22.10;99.90
34766;DHT22;20984;43.508;1.504;2023-05-07T13:31:56;22.10;99.90
34766;DHT22;20984;43.508;1.504;2023-05-07T13:34:22;22.20;99.90
34766;DHT22;20984;43.508;1.504;2023-05-07T13:36:48;22.10;99.90
34766;DHT22;20984;43.508;1.504;2023-05-07T13:39:13;22.10;99.90
34766;DHT22;20984;43.508;1.504;2023-05-07T13:41:39;22.30;99.90
34766;DHT22;20984;43.508;1.504;2023-05-07T13:44:05;22.60;99.90
34766;DHT22;20984;43.508;1.504;2023-05-07T13:46:30;22.90;99.90
34766;DHT22;20984;43.508;1.504;2023-05-07T13:48:56;23.20;99.90
34766;DHT22;20984;43.508;1.504;2023-05-07T13:51:22;23.30;99.90
34766;DHT22;20984;43.508;1.504;2023-05-07T13:53:48;23.20;99.90
34766;DHT22;20984;43.508;1.504;2023-05-07T13:56:14;23.10;99.90
34766;DHT22;20984;43.508;1.504;2023-05-07T13:58:40;23.20;99.90
34766;DHT22;20984;43.508;1.504;2023-05-07T14:01:06;23.10;99.90
34766;DHT22;20984;43.508;1.504;2023-05-07T14:03:31;23.40;99.90
34766;DHT22;20984;43.508;1.504;2023-05-07T14:05:59;23.40;99.90
34766;DHT22;20984;43.508;1.504;2023-05-07T14:08:27;23.60;99.90
34766;DHT22;20984;43.508;1.504;2023-05-07T14:10:53;23.60;99.90
34766;DHT22;20984;43.508;1.504;2023-05-07T14:13:18;23.70;99.90
34766;DHT22;20984;43.508;1.504;2023-05-07T14:15:44;23.70;99.90
34766;DHT22;20984;43.508;1.504;2023-05-07T14:18:14;23.80;99.90
34766;DHT22;20984;43.508;1.504;2023-05-07T14:20:40;23.70;99.90
34766;DHT22;20984;43.508;1.504;2023-05-07T14:23:06;23.60;99.90
34766;DHT22;20984;43.508;1.504;2023-05-07T14:25:32;23.90;99.90
34766;DHT22;20984;43.508;1.504;2023-05-07T14:27:57;24.10;99.90
34766;DHT22;20984;43.508;1.504;2023-05-07T14:30:23;24.00;99.90
34766;DHT22;20984;43.508;1.504;2023-05-07T14:32:50;23.60;99.90
34766;DHT22;20984;43.508;1.504;2023-05-07T14:35:16;23.40;99.90
34766;DHT22;20984;43.508;1.504;2023-05-07T14:37:42;23.50;99.90
34766;DHT22;20984;43.508;1.504;2023-05-07T14:40:08;23.50;99.90
34766;DHT22;20984;43.508;1.504;2023-05-07T14:42:34;23.60;99.90
34766;DHT22;20984;43.508;1.504;2023-05-07T14:45:00;23.40;99.90
34766;DHT22;20984;43.508;1.504;2023-05-07T14:47:26;22.90;99.90
34766;DHT22;20984;43.508;1.504;2023-05-07T14:49:51;22.60;99.90
34766;DHT22;20984;43.508;1.504;2023-05-07T14:52:18;22.30;99.90
34766;DHT22;20984;43.508;1.504;2023-05-07T14:54:44;22.20;99.90
34766;DHT22;20984;43.508;1.504;2023-05-07T14:57:10;22.30;99.90
34766;DHT22;20984;43.508;1.504;2023-05-07T14:59:38;22.50;99.90
34766;DHT22;20984;43.508;1.504;2023-05-07T15:02:05;22.50;99.90
34766;DHT22;20984;43.508;1.504;2023-05-07T15:04:33;22.40;99.90
34766;DHT22;20984;43.508;1.504;2023-05-07T15:06:59;22.20;99.90
34766;DHT22;20984;43.508;1.504;2023-05-07T15:09:25;22.30;99.90
34766;DHT22;20984;43.508;1.504;2023-05-07T15:11:51;22.30;99.90
34766;DHT22;20984;43.508;1.504;2023-05-07T15:14:17;22.10;99.90
34766;DHT22;20984;43.508;1.504;2023-05-07T15:16:43;21.90;99.90
34766;DHT22;20984;43.508;1.504;2023-05-07T15:19:08;21.50;99.90
34766;DHT22;20984;43.508;1.504;2023-05-07T15:21:34;21.30;99.90
34766;DHT22;20984;43.508;1.504;2023-05-07T15:24:02;20.50;99.90
34766;DHT22;20984;43.508;1.504;2023-05-07T15:26:27;19.70;99.90
34766;DHT22;20984;43.508;1.504;2023-05-07T15:28:53;18.80;99.90
34766;DHT22;20984;43.508;1.504;2023-05-07T15:31:21;18.20;99.90
34766;DHT22;20984;43.508;1.504;2023-05-07T15:33:47;17.80;99.90
34766;DHT22;20984;43.508;1.504;2023-05-07T15:36:13;17.40;99.90
34766;DHT22;20984;43.508;1.504;2023-05-07T15:38:39;17.20;99.90
34766;DHT22;20984;43.508;1.504;2023-05-07T15:41:05;17.20;99.90
34766;DHT22;20984;43.508;1.504;2023-05-07T15:43:31;17.10;99.90